Latest Coastal Weather Observations for Barrow Island

IDW60701

Issued at 12:11 am WST Friday 6 May 2016 (issued every 10 minutes, with the page automatically refreshed every 10 minutes)

About coastal observations | Map of coastal stations | Coastal observations for WA | Marine services | Other Formats
Station Details ID: 005094 Name: BARROW ISLAND AIRPORT Lat: -20.88 Lon: 115.41 Height: 6.4 m
Data from the previous 72 hours. | See also: Recent months at Barrow Island
Date/Time
WST
Temp

°C
Wind Pressure Rain
since 9am
mm
Weather Cloud Vis
km
Sea
Height
m
Swell
Dir
 
Speed
knots
Gust
knots
hPa Trend Height
m
Period
s
Dir
06/12:00am 23.0 W 9 11 1010.4 - 5.6 - - - - - - -
 
Date/Time
WST
Temp

°C
Wind Pressure Rain
since 9am
mm
Weather Cloud Vis
km
Sea
Height
m
Swell
Dir
 
Speed
knots
Gust
knots
hPa Trend Height
m
Period
s
Dir
05/11:30pm 22.9 W 6 8 1010.6 - 5.6 - - - - - - -
05/11:00pm 23.0 W 5 7 1011.0 - 5.4 - - - - - - -
05/10:30pm 23.3 WNW 5 7 1011.0 - 5.0 - - - - - - -
05/10:00pm 23.0 WNW 4 6 1011.4 - 5.0 - - - - - - -
05/09:30pm 23.0 NW 9 19 1011.7 - 5.0 - - - - - - -
05/09:00pm 24.7 NNW 7 18 1011.6 - 0.6 - - - - - - -
05/08:30pm 25.2 NW 6 7 1011.5 - 0.6 - - - - - - -
05/08:00pm 25.1 WNW 5 5 1011.1 - 0.6 - - - - - - -
05/07:30pm 25.3 CALM 0 0 1010.6 - 0.4 - - - - - - -
05/07:00pm 25.2 NW 3 5 1010.1 - 0.2 - - - - - - -
05/06:30pm 25.4 NNW 5 6 1010.2 - 0.2 - - - - - - -
05/06:00pm 25.5 NW 6 7 1010.1 - 0.2 - - - - - - -
05/05:30pm 26.6 WNW 6 7 1010.0 - 0.0 - - - - - - -
05/05:00pm 27.1 NW 7 8 1009.8 - 0.0 - - - - - - -
05/04:30pm 27.4 NNW 8 10 1009.7 - 0.0 - - - - - - -
05/04:00pm 27.6 NNW 9 12 1009.7 - 0.0 - - - - - - -
05/03:30pm 27.8 NW 7 9 1009.8 - 0.0 - - - - - - -
05/03:00pm 27.3 NE 4 5 1009.8 - 0.0 - - - - - - -
05/02:30pm 27.5 E 5 7 1009.6 - 0.0 - - - - - - -
05/02:00pm 27.8 ESE 6 7 1009.4 - 0.0 - - - - - - -
05/01:30pm 27.8 E 5 7 1009.6 - 0.0 - - - - - - -
05/01:00pm 28.1 SE 6 9 1009.8 - 0.0 - - - - - - -
05/12:30pm 27.7 SE 5 7 1010.2 - 0.0 - - - - - - -
05/12:00pm 28.0 SSE 4 5 1010.6 - 0.0 - - - - - - -
05/11:30am 27.3 SSE 2 4 1011.2 - 0.0 - - - - - - -
05/11:00am 27.4 SSE 5 6 1011.8 - 0.0 - - - - - - -
05/10:30am 27.6 SSE 5 6 1011.9 - 0.0 - - - - - - -
05/10:00am 27.6 CALM 0 1 1012.2 - 0.0 - - - - - - -
05/09:30am 27.4 CALM 0 2 1012.1 - 0.0 - - - - - - -
05/09:00am 27.3 CALM 0 2 1012.0 - 0.0 - - - - - - -
05/08:30am 26.6 NNW 3 4 1012.0 - 0.0 - - - - - - -
05/08:00am 25.7 N 3 3 1011.6 - 0.0 - - - - - - -
05/07:30am 25.4 N 4 4 1011.2 - 0.0 - - - - - - -
05/07:00am 25.2 N 3 6 1010.9 - 0.0 - - - - - - -
05/06:30am 25.2 N 3 4 1010.8 - 0.0 - - - - - - -
05/06:00am 25.1 NNW 4 5 1010.5 - 0.0 - - - - - - -
05/05:30am 25.3 N 1 5 1010.2 - 0.0 - - - - - - -
05/05:00am 25.5 N 3 4 1010.3 - 0.0 - - - - - - -
05/04:30am 25.3 WNW 3 4 1010.0 - 0.0 - - - - - - -
05/04:00am 25.4 NW 5 6 1010.1 - 0.0 - - - - - - -
05/03:30am 25.3 NNW 6 6 1010.0 - 0.0 - - - - - - -
05/03:00am 25.4 CALM 0 0 1009.9 - 0.0 - - - - - - -
05/02:30am 25.5 NW 2 4 1009.9 - 0.0 - - - - - - -
05/02:00am 25.5 NNW 2 3 1010.2 - 0.0 - - - - - - -
05/01:30am 25.4 NNW 4 5 1010.5 - 0.0 - - - - - - -
05/01:00am 25.7 NNW 4 4 1010.8 - 0.0 - - - - - - -
05/12:30am 25.6 N 4 5 1010.8 - 0.0 - - - - - - -
05/12:00am 25.7 NNW 4 5 1011.2 - 0.0 - - - - - - -
 
Date/Time
WST
Temp

°C
Wind Pressure Rain
since 9am
mm
Weather Cloud Vis
km
Sea
Height
m
Swell
Dir
 
Speed
knots
Gust
knots
hPa Trend Height
m
Period
s
Dir
04/11:30pm 25.7 N 4 5 1011.4 - 0.0 - - - - - - -
04/11:00pm 25.9 N 4 6 1011.4 - 0.0 - - - - - - -
04/10:30pm 25.8 NW 2 5 1011.5 - 0.0 - - - - - - -
04/10:00pm 25.9 NNW 4 6 1011.7 - 0.0 - - - - - - -
04/09:30pm 26.1 N 4 6 1011.6 - 0.0 - - - - - - -
04/09:00pm 26.1 N 3 4 1011.6 - 0.0 - - - - - - -
04/08:30pm 26.3 NNE 5 5 1011.6 - 0.0 - - - - - - -
04/08:00pm 26.5 NNW 3 4 1011.6 - 0.0 - - - - - - -
04/07:30pm 26.5 NNW 3 4 1011.4 - 0.0 - - - - - - -
04/07:00pm 26.7 ENE 4 5 1010.7 - 0.0 - - - - - - -
04/06:30pm 26.7 E 3 4 1010.8 - 0.0 - - - - - - -
04/06:00pm 27.0 E 5 7 1010.4 - 0.0 - - - - - - -
04/05:30pm 27.1 E 5 6 1010.2 - 0.0 - - - - - - -
04/05:00pm 27.2 ENE 5 6 1009.8 - 0.0 - - - - - - -
04/04:30pm 27.4 ENE 5 7 1009.6 - 0.0 - - - - - - -
04/04:00pm 27.6 E 6 7 1009.4 - 0.0 - - - - - - -
04/03:30pm 28.2 E 5 6 1009.7 - 0.0 - - - - - - -
04/03:00pm 27.9 E 6 8 1009.5 - 0.0 - - - - - - -
04/02:30pm 27.9 E 7 8 1009.6 - 0.0 - - - - - - -
04/02:00pm 27.7 E 6 8 1009.7 - 0.0 - - - - - - -
04/01:30pm 27.9 E 6 7 1010.0 - 0.0 - - - - - - -
04/01:00pm 28.4 E 7 9 1010.2 - 0.0 - - - - - - -
04/12:30pm 28.9 E 7 9 1010.6 - 0.0 - - - - - - -
04/12:00pm 28.9 E 7 8 1011.0 - 0.0 - - - - - - -
04/11:30am 28.3 E 7 9 1011.4 - 0.0 - - - - - - -
04/11:00am 28.0 E 8 10 1011.9 - 0.0 - - - - - - -
04/10:30am 28.5 E 9 10 1012.2 - 0.0 - - - - - - -
04/10:00am 28.2 E 9 10 1012.5 - 0.0 - - - - - - -
04/09:30am 27.1 E 7 9 1012.6 - 0.0 - - - - - - -
04/09:00am 26.9 E 8 9 1012.6 - 0.0 - - - - - - -
04/08:30am 26.7 E 8 9 1012.3 - 0.0 - - - - - - -
04/08:00am 26.1 ESE 9 10 1012.2 - 0.0 - - - - - - -
04/07:30am 26.0 ESE 7 9 1012.0 - 0.0 - - - - - - -
04/07:00am 25.7 ESE 7 9 1011.5 - 0.0 - - - - - - -
04/06:30am 26.0 SE 9 11 1011.3 - 0.0 - - - - - - -
04/06:00am 25.9 SE 10 12 1010.9 - 0.0 - - - - - - -
04/05:30am 26.4 SSE 8 10 1010.8 - 0.0 - - - - - - -
04/05:00am 26.1 S 7 8 1010.7 - 0.0 - - - - - - -
04/04:30am 24.7 SW 4 5 1011.0 - 0.0 - - - - - - -
04/04:00am 25.4 SW 4 5 1010.9 - 0.0 - - - - - - -
04/03:30am 25.8 S 3 4 1011.0 - 0.0 - - - - - - -
04/03:00am 25.2 SW 3 4 1011.1 - 0.0 - - - - - - -
04/02:30am 25.5 CALM 0 0 1011.4 - 0.0 - - - - - - -
04/02:00am 25.5 CALM 0 0 1011.5 - 0.0 - - - - - - -
04/01:30am 25.2 W 3 4 1011.5 - 0.0 - - - - - - -
04/01:00am 25.2 WNW 3 4 1011.5 - 0.0 - - - - - - -
04/12:30am 25.3 WNW 4 6 1011.5 - 0.0 - - - - - - -
04/12:00am 25.4 WNW 7 8 1011.4 - 0.0 - - - - - - -
 
Date/Time
WST
Temp

°C
Wind Pressure Rain
since 9am
mm
Weather Cloud Vis
km
Sea
Height
m
Swell
Dir
 
Speed
knots
Gust
knots
hPa Trend Height
m
Period
s
Dir
03/11:30pm 25.5 WNW 8 9 1011.6 - 0.0 - - - - - - -
03/11:00pm 25.5 WNW 8 9 1011.8 - 0.0 - - - - - - -
03/10:30pm 25.3 WNW 9 10 1011.8 - 0.0 - - - - - - -
03/10:00pm 25.2 WNW 7 8 1011.9 - 0.0 - - - - - - -
03/09:30pm 25.5 WNW 9 10 1012.0 - 0.0 - - - - - - -
03/09:00pm 25.3 WNW 7 8 1012.3 - 0.0 - - - - - - -
03/08:30pm 25.5 WNW 5 5 1012.3 - 0.0 - - - - - - -
03/08:00pm 26.1 W 5 6 1012.2 - 0.0 - - - - - - -
03/07:30pm 26.4 W 5 5 1012.0 - 0.0 - - - - - - -
03/07:00pm 26.7 W 6 7 1011.7 - 0.0 - - - - - - -
03/06:30pm 27.2 WSW 5 6 1011.5 - 0.0 - - - - - - -
03/06:00pm 27.6 W 6 7 1011.3 - 0.0 - - - - - - -
03/05:30pm 28.4 W 8 9 1010.9 - 0.0 - - - - - - -
03/05:00pm 28.8 WSW 7 9 1010.6 - 0.0 - - - - - - -
03/04:30pm 29.1 S 6 7 1010.5 - 0.0 - - - - - - -
03/04:00pm 28.7 S 5 6 1010.5 - 0.0 - - - - - - -
03/03:30pm 29.3 S 6 8 1010.4 - 0.0 - - - - - - -
03/03:00pm 28.9 E 7 8 1010.5 - 0.0 - - - - - - -
03/02:30pm 29.0 E 9 11 1010.8 - 0.0 - - - - - - -
03/02:00pm 28.8 E 8 9 1011.0 - 0.0 - - - - - - -
03/01:30pm 29.0 E 6 7 1011.5 - 0.0 - - - - - - -
03/01:00pm 29.0 E 6 7 1011.8 - 0.0 - - - - - - -
03/12:30pm 28.6 E 8 10 1012.3 - 0.0 - - - - - - -
03/12:00pm 28.1 E 11 13 1012.5 - 0.0 - - - - - - -
03/11:30am 28.8 E 11 12 1012.8 - 0.0 - - - - - - -
03/11:00am 28.7 E 11 13 1013.3 - 0.0 - - - - - - -
03/10:30am 28.5 E 11 13 1013.6 - 0.0 - - - - - - -
03/10:00am 27.9 E 12 13 1013.8 - 0.0 - - - - - - -
03/09:30am 27.7 ESE 12 14 1013.8 - 0.0 - - - - - - -
03/09:00am 27.7 ESE 7 8 1013.6 - 0.0 - - - - - - -
03/08:30am 27.9 E 5 6 1013.3 - 0.0 - - - - - - -
03/08:00am 26.8 ENE 4 5 1013.1 - 0.0 - - - - - - -
03/07:30am 25.3 NNE 3 4 1012.9 - 0.0 - - - - - - -
03/07:00am 23.8 CALM 0 0 1012.5 - 0.0 - - - - - - -
03/06:30am 23.0 CALM 0 0 1012.3 - 0.0 - - - - - - -
03/06:00am 23.2 CALM 0 0 1012.0 - 0.0 - - - - - - -
03/05:30am 23.2 CALM 0 0 1011.9 - 0.0 - - - - - - -
03/05:00am 23.7 CALM 0 0 1011.7 - 0.0 - - - - - - -
03/04:30am 24.1 CALM 0 0 1011.6 - 0.0 - - - - - - -
03/04:00am 24.0 CALM 0 0 1011.5 - 0.0 - - - - - - -
03/03:30am 23.6 NNW 3 4 1011.5 - 0.0 - - - - - - -
03/03:00am 23.6 NW 3 4 1011.6 - 0.0 - - - - - - -
03/02:30am 24.2 WNW 3 4 1011.8 - 0.0 - - - - - - -
03/02:00am 24.2 NW 2 3 1012.2 - 0.0 - - - - - - -
03/01:30am 24.0 NW 6 7 1012.2 - 0.0 - - - - - - -
03/01:00am 23.8 NW 5 5 1012.4 - 0.0 - - - - - - -
03/12:30am 24.0 NW 5 6 1012.7 - 0.0 - - - - - - -

Other Formats:

Comma delimited format used in spreadsheet applications
http://www.bom.gov.au/fwo/IDW60701/IDW60701.95304.axf

JavaScript Object Notation format (JSON) in row-major order
http://www.bom.gov.au/fwo/IDW60701/IDW60701.95304.json